sensor_id;sensor_type;location;lat;lon;timestamp;P1;durP1;ratioP1;P2;durP2;ratioP2
6243;SDS011;3155;49.940;8.450;2023-07-29T00:00:50;7.43;;;5.65;;
6243;SDS011;3155;49.940;8.450;2023-07-29T00:03:17;6.30;;;4.70;;
6243;SDS011;3155;49.940;8.450;2023-07-29T00:05:45;5.55;;;5.05;;
6243;SDS011;3155;49.940;8.450;2023-07-29T00:08:12;6.47;;;5.85;;
6243;SDS011;3155;49.940;8.450;2023-07-29T00:10:39;59.45;;;55.72;;
6243;SDS011;3155;49.940;8.450;2023-07-29T00:13:06;7.05;;;5.20;;
6243;SDS011;3155;49.940;8.450;2023-07-29T00:15:34;143.13;;;134.10;;
6243;SDS011;3155;49.940;8.450;2023-07-29T00:18:01;527.63;;;473.67;;
6243;SDS011;3155;49.940;8.450;2023-07-29T00:20:28;331.40;;;309.03;;
6243;SDS011;3155;49.940;8.450;2023-07-29T00:22:59;338.15;;;314.65;;
6243;SDS011;3155;49.940;8.450;2023-07-29T00:25:34;182.70;;;170.77;;
6243;SDS011;3155;49.940;8.450;2023-07-29T00:28:02;32.13;;;30.08;;
6243;SDS011;3155;49.940;8.450;2023-07-29T00:30:29;222.50;;;206.90;;
6243;SDS011;3155;49.940;8.450;2023-07-29T00:32:56;527.20;;;480.58;;
6243;SDS011;3155;49.940;8.450;2023-07-29T00:35:26;520.85;;;477.77;;
6243;SDS011;3155;49.940;8.450;2023-07-29T00:37:53;307.30;;;285.67;;
6243;SDS011;3155;49.940;8.450;2023-07-29T00:40:21;152.05;;;141.77;;
6243;SDS011;3155;49.940;8.450;2023-07-29T00:42:49;5.65;;;4.53;;
6243;SDS011;3155;49.940;8.450;2023-07-29T00:45:20;5.55;;;4.82;;
6243;SDS011;3155;49.940;8.450;2023-07-29T00:47:49;196.47;;;181.27;;
6243;SDS011;3155;49.940;8.450;2023-07-29T00:50:17;557.92;;;504.33;;
6243;SDS011;3155;49.940;8.450;2023-07-29T00:52:44;382.50;;;350.50;;
6243;SDS011;3155;49.940;8.450;2023-07-29T00:55:12;587.47;;;448.05;;
6243;SDS011;3155;49.940;8.450;2023-07-29T00:57:39;401.57;;;367.13;;
6243;SDS011;3155;49.940;8.450;2023-07-29T01:00:07;489.27;;;448.92;;
6243;SDS011;3155;49.940;8.450;2023-07-29T01:02:37;394.90;;;364.92;;
6243;SDS011;3155;49.940;8.450;2023-07-29T01:05:05;530.07;;;464.30;;
6243;SDS011;3155;49.940;8.450;2023-07-29T01:07:52;203.43;;;187.25;;
6243;SDS011;3155;49.940;8.450;2023-07-29T01:15:58;52.47;;;49.10;;
6243;SDS011;3155;49.940;8.450;2023-07-29T01:18:35;548.50;;;492.65;;
6243;SDS011;3155;49.940;8.450;2023-07-29T01:21:03;10.32;;;9.50;;
6243;SDS011;3155;49.940;8.450;2023-07-29T01:23:32;3.07;;;2.57;;
6243;SDS011;3155;49.940;8.450;2023-07-29T01:26:00;3.00;;;2.80;;
6243;SDS011;3155;49.940;8.450;2023-07-29T01:28:30;5.27;;;2.70;;
6243;SDS011;3155;49.940;8.450;2023-07-29T01:33:33;2.80;;;2.50;;
6243;SDS011;3155;49.940;8.450;2023-07-29T01:36:03;2.88;;;2.60;;
6243;SDS011;3155;49.940;8.450;2023-07-29T01:38:33;6.95;;;6.55;;
6243;SDS011;3155;49.940;8.450;2023-07-29T01:41:02;116.60;;;108.93;;
6243;SDS011;3155;49.940;8.450;2023-07-29T01:43:29;598.20;;;431.13;;
6243;SDS011;3155;49.940;8.450;2023-07-29T01:45:56;586.05;;;428.63;;
6243;SDS011;3155;49.940;8.450;2023-07-29T01:48:24;117.93;;;110.87;;
6243;SDS011;3155;49.940;8.450;2023-07-29T01:50:51;367.30;;;341.42;;
6243;SDS011;3155;49.940;8.450;2023-07-29T01:53:21;551.40;;;504.60;;
6243;SDS011;3155;49.940;8.450;2023-07-29T01:55:51;600.65;;;431.35;;
6243;SDS011;3155;49.940;8.450;2023-07-29T01:58:19;623.22;;;471.35;;
6243;SDS011;3155;49.940;8.450;2023-07-29T02:00:48;633.30;;;489.48;;
6243;SDS011;3155;49.940;8.450;2023-07-29T02:03:16;575.13;;;514.47;;
6243;SDS011;3155;49.940;8.450;2023-07-29T02:05:43;195.30;;;181.35;;
6243;SDS011;3155;49.940;8.450;2023-07-29T02:08:11;43.50;;;40.83;;
6243;SDS011;3155;49.940;8.450;2023-07-29T02:10:38;74.88;;;70.22;;
6243;SDS011;3155;49.940;8.450;2023-07-29T02:13:05;2.15;;;1.95;;
6243;SDS011;3155;49.940;8.450;2023-07-29T02:15:32;3.28;;;2.35;;
6243;SDS011;3155;49.940;8.450;2023-07-29T02:18:00;24.98;;;23.48;;
6243;SDS011;3155;49.940;8.450;2023-07-29T02:20:28;2.58;;;1.95;;
6243;SDS011;3155;49.940;8.450;2023-07-29T02:22:55;2.85;;;1.85;;
6243;SDS011;3155;49.940;8.450;2023-07-29T02:25:22;87.07;;;81.83;;
6243;SDS011;3155;49.940;8.450;2023-07-29T02:27:49;538.80;;;490.97;;
6243;SDS011;3155;49.940;8.450;2023-07-29T02:30:20;592.90;;;541.97;;
6243;SDS011;3155;49.940;8.450;2023-07-29T02:32:47;617.47;;;517.97;;
6243;SDS011;3155;49.940;8.450;2023-07-29T02:35:15;497.77;;;457.67;;
6243;SDS011;3155;49.940;8.450;2023-07-29T02:37:42;562.73;;;514.37;;
6243;SDS011;3155;49.940;8.450;2023-07-29T02:40:09;607.13;;;551.93;;
6243;SDS011;3155;49.940;8.450;2023-07-29T02:42:40;325.42;;;300.33;;
6243;SDS011;3155;49.940;8.450;2023-07-29T02:45:07;240.30;;;222.82;;
6243;SDS011;3155;49.940;8.450;2023-07-29T02:47:45;66.28;;;62.13;;
6243;SDS011;3155;49.940;8.450;2023-07-29T02:50:13;328.25;;;303.38;;
6243;SDS011;3155;49.940;8.450;2023-07-29T02:52:40;238.25;;;221.20;;
6243;SDS011;3155;49.940;8.450;2023-07-29T02:55:09;117.38;;;109.97;;
6243;SDS011;3155;49.940;8.450;2023-07-29T02:57:36;97.38;;;91.03;;
6243;SDS011;3155;49.940;8.450;2023-07-29T03:00:04;70.05;;;64.90;;
6243;SDS011;3155;49.940;8.450;2023-07-29T03:02:33;6.13;;;5.15;;
6243;SDS011;3155;49.940;8.450;2023-07-29T03:05:00;230.20;;;181.77;;
6243;SDS011;3155;49.940;8.450;2023-07-29T03:07:31;531.25;;;325.27;;
6243;SDS011;3155;49.940;8.450;2023-07-29T03:09:58;523.10;;;314.52;;
6243;SDS011;3155;49.940;8.450;2023-07-29T03:12:25;516.60;;;308.53;;
6243;SDS011;3155;49.940;8.450;2023-07-29T03:14:52;506.30;;;288.88;;
6243;SDS011;3155;49.940;8.450;2023-07-29T03:17:19;501.53;;;280.27;;
6243;SDS011;3155;49.940;8.450;2023-07-29T03:19:50;497.80;;;272.52;;
6243;SDS011;3155;49.940;8.450;2023-07-29T03:22:17;493.42;;;267.38;;
6243;SDS011;3155;49.940;8.450;2023-07-29T03:24:51;487.75;;;262.00;;
6243;SDS011;3155;49.940;8.450;2023-07-29T03:27:18;493.83;;;264.50;;
6243;SDS011;3155;49.940;8.450;2023-07-29T03:29:48;526.28;;;307.90;;
6243;SDS011;3155;49.940;8.450;2023-07-29T03:32:15;511.33;;;293.90;;
6243;SDS011;3155;49.940;8.450;2023-07-29T03:34:42;522.70;;;314.47;;
6243;SDS011;3155;49.940;8.450;2023-07-29T03:37:10;527.47;;;326.67;;
6243;SDS011;3155;49.940;8.450;2023-07-29T03:39:37;482.10;;;259.00;;
6243;SDS011;3155;49.940;8.450;2023-07-29T03:42:04;480.50;;;251.80;;
6243;SDS011;3155;49.940;8.450;2023-07-29T03:44:31;481.65;;;233.63;;
6243;SDS011;3155;49.940;8.450;2023-07-29T03:47:02;484.90;;;254.90;;
6243;SDS011;3155;49.940;8.450;2023-07-29T03:49:29;483.30;;;252.95;;
6243;SDS011;3155;49.940;8.450;2023-07-29T03:51:59;483.20;;;240.02;;
6243;SDS011;3155;49.940;8.450;2023-07-29T03:54:26;484.02;;;247.57;;
6243;SDS011;3155;49.940;8.450;2023-07-29T03:56:56;514.90;;;300.15;;
6243;SDS011;3155;49.940;8.450;2023-07-29T03:59:24;526.80;;;321.45;;
6243;SDS011;3155;49.940;8.450;2023-07-29T04:01:54;542.85;;;345.33;;
6243;SDS011;3155;49.940;8.450;2023-07-29T04:04:21;535.65;;;363.30;;
6243;SDS011;3155;49.940;8.450;2023-07-29T04:06:48;352.88;;;295.20;;
6243;SDS011;3155;49.940;8.450;2023-07-29T04:09:15;538.60;;;373.45;;
6243;SDS011;3155;49.940;8.450;2023-07-29T04:11:46;501.88;;;387.70;;
6243;SDS011;3155;49.940;8.450;2023-07-29T04:14:13;467.83;;;420.13;;
6243;SDS011;3155;49.940;8.450;2023-07-29T04:16:40;470.23;;;426.70;;
6243;SDS011;3155;49.940;8.450;2023-07-29T04:19:07;478.65;;;427.42;;
6243;SDS011;3155;49.940;8.450;2023-07-29T04:21:40;480.50;;;424.33;;
6243;SDS011;3155;49.940;8.450;2023-07-29T04:24:08;482.60;;;429.55;;
6243;SDS011;3155;49.940;8.450;2023-07-29T04:26:38;485.60;;;433.50;;
6243;SDS011;3155;49.940;8.450;2023-07-29T04:29:06;559.10;;;363.55;;
6243;SDS011;3155;49.940;8.450;2023-07-29T04:31:36;554.33;;;345.45;;
6243;SDS011;3155;49.940;8.450;2023-07-29T04:34:04;539.37;;;321.67;;
6243;SDS011;3155;49.940;8.450;2023-07-29T04:36:31;533.85;;;311.15;;
6243;SDS011;3155;49.940;8.450;2023-07-29T04:38:59;539.60;;;328.02;;
6243;SDS011;3155;49.940;8.450;2023-07-29T04:41:26;535.67;;;308.52;;
6243;SDS011;3155;49.940;8.450;2023-07-29T04:43:54;531.90;;;305.02;;
6243;SDS011;3155;49.940;8.450;2023-07-29T04:46:21;536.55;;;320.52;;
6243;SDS011;3155;49.940;8.450;2023-07-29T04:48:48;533.42;;;312.40;;
6243;SDS011;3155;49.940;8.450;2023-07-29T04:51:15;536.00;;;321.67;;
6243;SDS011;3155;49.940;8.450;2023-07-29T04:53:42;532.78;;;311.70;;
6243;SDS011;3155;49.940;8.450;2023-07-29T04:56:10;534.63;;;314.13;;
6243;SDS011;3155;49.940;8.450;2023-07-29T04:58:37;535.03;;;311.15;;
6243;SDS011;3155;49.940;8.450;2023-07-29T05:01:05;537.65;;;317.63;;
6243;SDS011;3155;49.940;8.450;2023-07-29T05:03:32;537.67;;;320.70;;
6243;SDS011;3155;49.940;8.450;2023-07-29T05:05:59;533.40;;;311.02;;
6243;SDS011;3155;49.940;8.450;2023-07-29T05:08:27;539.30;;;371.95;;
6243;SDS011;3155;49.940;8.450;2023-07-29T05:10:54;555.35;;;367.08;;
6243;SDS011;3155;49.940;8.450;2023-07-29T05:13:22;583.40;;;417.85;;
6243;SDS011;3155;49.940;8.450;2023-07-29T05:15:49;15.32;;;14.43;;
6243;SDS011;3155;49.940;8.450;2023-07-29T05:18:17;594.67;;;447.00;;
6243;SDS011;3155;49.940;8.450;2023-07-29T05:20:44;601.88;;;431.38;;
6243;SDS011;3155;49.940;8.450;2023-07-29T05:23:11;569.25;;;375.15;;
6243;SDS011;3155;49.940;8.450;2023-07-29T05:25:38;586.80;;;396.90;;
6243;SDS011;3155;49.940;8.450;2023-07-29T05:28:06;583.30;;;397.70;;
6243;SDS011;3155;49.940;8.450;2023-07-29T05:30:36;593.70;;;409.88;;
6243;SDS011;3155;49.940;8.450;2023-07-29T05:33:03;608.47;;;433.52;;
6243;SDS011;3155;49.940;8.450;2023-07-29T05:35:31;615.07;;;446.23;;
6243;SDS011;3155;49.940;8.450;2023-07-29T05:37:58;626.35;;;462.73;;
6243;SDS011;3155;49.940;8.450;2023-07-29T05:40:25;626.28;;;454.23;;
6243;SDS011;3155;49.940;8.450;2023-07-29T05:42:55;626.77;;;467.33;;
6243;SDS011;3155;49.940;8.450;2023-07-29T05:45:22;636.72;;;481.70;;
6243;SDS011;3155;49.940;8.450;2023-07-29T05:47:49;653.55;;;504.23;;
6243;SDS011;3155;49.940;8.450;2023-07-29T05:50:16;656.75;;;506.23;;
6243;SDS011;3155;49.940;8.450;2023-07-29T05:52:44;647.17;;;493.55;;
6243;SDS011;3155;49.940;8.450;2023-07-29T05:55:11;630.97;;;469.80;;
6243;SDS011;3155;49.940;8.450;2023-07-29T05:57:38;630.65;;;468.35;;
6243;SDS011;3155;49.940;8.450;2023-07-29T06:00:09;649.70;;;486.73;;
6243;SDS011;3155;49.940;8.450;2023-07-29T06:02:37;678.50;;;546.70;;
6243;SDS011;3155;49.940;8.450;2023-07-29T06:05:04;708.70;;;584.30;;
6243;SDS011;3155;49.940;8.450;2023-07-29T06:07:32;677.92;;;585.40;;
6243;SDS011;3155;49.940;8.450;2023-07-29T06:10:00;654.55;;;590.22;;
6243;SDS011;3155;49.940;8.450;2023-07-29T06:12:30;670.60;;;607.90;;
6243;SDS011;3155;49.940;8.450;2023-07-29T06:15:00;607.42;;;556.33;;
6243;SDS011;3155;49.940;8.450;2023-07-29T06:17:27;576.35;;;529.63;;
6243;SDS011;3155;49.940;8.450;2023-07-29T06:19:54;562.42;;;516.67;;
6243;SDS011;3155;49.940;8.450;2023-07-29T06:22:22;597.92;;;549.15;;
6243;SDS011;3155;49.940;8.450;2023-07-29T06:24:52;636.50;;;583.60;;
6243;SDS011;3155;49.940;8.450;2023-07-29T06:27:19;650.13;;;595.60;;
6243;SDS011;3155;49.940;8.450;2023-07-29T06:29:46;572.92;;;525.22;;
6243;SDS011;3155;49.940;8.450;2023-07-29T06:32:16;309.75;;;285.90;;
6243;SDS011;3155;49.940;8.450;2023-07-29T06:34:43;590.63;;;540.55;;
6243;SDS011;3155;49.940;8.450;2023-07-29T06:37:14;511.98;;;469.30;;
6243;SDS011;3155;49.940;8.450;2023-07-29T06:39:44;183.82;;;171.18;;
6243;SDS011;3155;49.940;8.450;2023-07-29T06:42:13;128.57;;;119.97;;
6243;SDS011;3155;49.940;8.450;2023-07-29T06:44:40;218.77;;;203.00;;
6243;SDS011;3155;49.940;8.450;2023-07-29T06:47:08;538.22;;;493.67;;
6243;SDS011;3155;49.940;8.450;2023-07-29T06:49:35;644.75;;;589.75;;
6243;SDS011;3155;49.940;8.450;2023-07-29T06:52:02;649.78;;;589.05;;
6243;SDS011;3155;49.940;8.450;2023-07-29T06:54:29;629.70;;;575.83;;
6243;SDS011;3155;49.940;8.450;2023-07-29T06:56:59;612.20;;;558.47;;
6243;SDS011;3155;49.940;8.450;2023-07-29T06:59:26;643.97;;;555.83;;
6243;SDS011;3155;49.940;8.450;2023-07-29T07:01:53;635.63;;;569.72;;
6243;SDS011;3155;49.940;8.450;2023-07-29T07:04:25;625.85;;;566.92;;
6243;SDS011;3155;49.940;8.450;2023-07-29T07:06:53;578.85;;;529.30;;
6243;SDS011;3155;49.940;8.450;2023-07-29T07:09:20;585.70;;;531.50;;
6243;SDS011;3155;49.940;8.450;2023-07-29T07:11:47;368.95;;;341.65;;
6243;SDS011;3155;49.940;8.450;2023-07-29T07:14:14;561.25;;;513.65;;
6243;SDS011;3155;49.940;8.450;2023-07-29T07:16:41;480.53;;;441.63;;
6243;SDS011;3155;49.940;8.450;2023-07-29T07:19:08;570.13;;;519.00;;
6243;SDS011;3155;49.940;8.450;2023-07-29T07:21:35;576.60;;;526.27;;
6243;SDS011;3155;49.940;8.450;2023-07-29T07:24:03;549.63;;;504.97;;
6243;SDS011;3155;49.940;8.450;2023-07-29T07:26:30;499.57;;;462.17;;
6243;SDS011;3155;49.940;8.450;2023-07-29T07:28:57;522.80;;;482.90;;
6243;SDS011;3155;49.940;8.450;2023-07-29T07:31:24;458.03;;;424.37;;
6243;SDS011;3155;49.940;8.450;2023-07-29T07:33:51;489.98;;;450.33;;
6243;SDS011;3155;49.940;8.450;2023-07-29T07:36:19;64.37;;;60.43;;
6243;SDS011;3155;49.940;8.450;2023-07-29T07:38:46;237.68;;;221.52;;
6243;SDS011;3155;49.940;8.450;2023-07-29T07:41:13;84.57;;;79.63;;
6243;SDS011;3155;49.940;8.450;2023-07-29T07:43:40;483.90;;;447.00;;
6243;SDS011;3155;49.940;8.450;2023-07-29T07:46:07;1.90;;;1.80;;
6243;SDS011;3155;49.940;8.450;2023-07-29T07:48:35;1.95;;;1.42;;
6243;SDS011;3155;49.940;8.450;2023-07-29T07:51:09;1.73;;;1.20;;
6243;SDS011;3155;49.940;8.450;2023-07-29T07:53:37;1.50;;;1.40;;
6243;SDS011;3155;49.940;8.450;2023-07-29T07:56:04;1.20;;;1.20;;
6243;SDS011;3155;49.940;8.450;2023-07-29T07:58:34;1.33;;;1.23;;
6243;SDS011;3155;49.940;8.450;2023-07-29T08:01:02;232.82;;;211.45;;
6243;SDS011;3155;49.940;8.450;2023-07-29T08:03:30;675.15;;;525.78;;
6243;SDS011;3155;49.940;8.450;2023-07-29T08:05:57;639.70;;;468.48;;
6243;SDS011;3155;49.940;8.450;2023-07-29T08:08:25;649.50;;;501.63;;
6243;SDS011;3155;49.940;8.450;2023-07-29T08:10:56;735.03;;;588.83;;
6243;SDS011;3155;49.940;8.450;2023-07-29T08:13:23;705.95;;;561.38;;
6243;SDS011;3155;49.940;8.450;2023-07-29T08:15:54;742.85;;;610.97;;
6243;SDS011;3155;49.940;8.450;2023-07-29T08:18:21;837.22;;;689.78;;
6243;SDS011;3155;49.940;8.450;2023-07-29T08:20:55;903.35;;;734.10;;
6243;SDS011;3155;49.940;8.450;2023-07-29T08:23:32;952.40;;;780.17;;
6243;SDS011;3155;49.940;8.450;2023-07-29T08:26:02;957.38;;;787.15;;
6243;SDS011;3155;49.940;8.450;2023-07-29T08:28:34;966.33;;;802.38;;
6243;SDS011;3155;49.940;8.450;2023-07-29T08:31:01;965.10;;;801.80;;
6243;SDS011;3155;49.940;8.450;2023-07-29T08:33:29;966.33;;;803.83;;
6243;SDS011;3155;49.940;8.450;2023-07-29T08:35:57;972.50;;;808.50;;
6243;SDS011;3155;49.940;8.450;2023-07-29T08:38:24;969.30;;;810.13;;
6243;SDS011;3155;49.940;8.450;2023-07-29T08:43:38;991.15;;;870.47;;
6243;SDS011;3155;49.940;8.450;2023-07-29T08:46:05;988.40;;;824.42;;
6243;SDS011;3155;49.940;8.450;2023-07-29T08:48:40;978.55;;;810.80;;
6243;SDS011;3155;49.940;8.450;2023-07-29T08:51:10;976.20;;;808.20;;
6243;SDS011;3155;49.940;8.450;2023-07-29T08:53:38;981.03;;;815.58;;
6243;SDS011;3155;49.940;8.450;2023-07-29T08:56:06;993.58;;;834.67;;
6243;SDS011;3155;49.940;8.450;2023-07-29T08:58:36;1002.60;;;846.42;;
6243;SDS011;3155;49.940;8.450;2023-07-29T09:01:05;1002.25;;;845.55;;
6243;SDS011;3155;49.940;8.450;2023-07-29T09:03:33;1009.40;;;858.50;;
6243;SDS011;3155;49.940;8.450;2023-07-29T09:06:05;1004.22;;;852.63;;
6243;SDS011;3155;49.940;8.450;2023-07-29T09:08:34;992.40;;;834.00;;
6243;SDS011;3155;49.940;8.450;2023-07-29T09:11:07;996.38;;;840.75;;
6243;SDS011;3155;49.940;8.450;2023-07-29T09:13:34;1021.37;;;875.87;;
6243;SDS011;3155;49.940;8.450;2023-07-29T09:16:02;1025.57;;;879.75;;
6243;SDS011;3155;49.940;8.450;2023-07-29T09:18:31;1028.90;;;893.78;;
6243;SDS011;3155;49.940;8.450;2023-07-29T09:20:58;1018.75;;;910.10;;
6243;SDS011;3155;49.940;8.450;2023-07-29T09:23:27;1007.92;;;924.42;;
6243;SDS011;3155;49.940;8.450;2023-07-29T09:26:06;1015.75;;;923.42;;
6243;SDS011;3155;49.940;8.450;2023-07-29T09:28:39;634.75;;;579.40;;
6243;SDS011;3155;49.940;8.450;2023-07-29T09:31:07;592.33;;;538.15;;
6243;SDS011;3155;49.940;8.450;2023-07-29T09:33:45;243.05;;;223.88;;
6243;SDS011;3155;49.940;8.450;2023-07-29T09:36:15;202.98;;;187.40;;
6243;SDS011;3155;49.940;8.450;2023-07-29T09:38:43;53.08;;;49.65;;
6243;SDS011;3155;49.940;8.450;2023-07-29T09:41:12;1.70;;;1.00;;
6243;SDS011;3155;49.940;8.450;2023-07-29T09:43:40;0.80;;;0.80;;
6243;SDS011;3155;49.940;8.450;2023-07-29T09:46:07;55.72;;;52.10;;
6243;SDS011;3155;49.940;8.450;2023-07-29T09:48:40;908.22;;;832.42;;
6243;SDS011;3155;49.940;8.450;2023-07-29T09:51:09;863.58;;;790.85;;
6243;SDS011;3155;49.940;8.450;2023-07-29T09:53:43;958.40;;;876.45;;
6243;SDS011;3155;49.940;8.450;2023-07-29T09:56:14;961.07;;;878.63;;
6243;SDS011;3155;49.940;8.450;2023-07-29T09:58:42;427.65;;;392.02;;
6243;SDS011;3155;49.940;8.450;2023-07-29T10:01:10;730.70;;;666.33;;
6243;SDS011;3155;49.940;8.450;2023-07-29T10:03:37;883.75;;;807.90;;
6243;SDS011;3155;49.940;8.450;2023-07-29T10:06:05;428.95;;;389.90;;
6243;SDS011;3155;49.940;8.450;2023-07-29T10:08:32;636.47;;;579.17;;
6243;SDS011;3155;49.940;8.450;2023-07-29T10:11:02;129.23;;;119.78;;
6243;SDS011;3155;49.940;8.450;2023-07-29T10:13:29;155.05;;;143.35;;
6243;SDS011;3155;49.940;8.450;2023-07-29T10:15:56;175.90;;;162.40;;
6243;SDS011;3155;49.940;8.450;2023-07-29T10:18:24;239.02;;;219.98;;
6243;SDS011;3155;49.940;8.450;2023-07-29T10:20:51;285.75;;;262.35;;
6243;SDS011;3155;49.940;8.450;2023-07-29T10:23:19;820.53;;;749.47;;
6243;SDS011;3155;49.940;8.450;2023-07-29T10:26:23;897.67;;;822.30;;
6243;SDS011;3155;49.940;8.450;2023-07-29T10:28:45;945.17;;;866.55;;
6243;SDS011;3155;49.940;8.450;2023-07-29T10:31:15;928.70;;;851.10;;
6243;SDS011;3155;49.940;8.450;2023-07-29T10:33:43;912.30;;;833.92;;
6243;SDS011;3155;49.940;8.450;2023-07-29T10:36:13;959.63;;;872.65;;
6243;SDS011;3155;49.940;8.450;2023-07-29T10:38:41;705.03;;;642.27;;
6243;SDS011;3155;49.940;8.450;2023-07-29T10:41:11;436.98;;;395.58;;
6243;SDS011;3155;49.940;8.450;2023-07-29T10:43:38;469.83;;;426.10;;
6243;SDS011;3155;49.940;8.450;2023-07-29T10:46:15;311.35;;;285.30;;
6243;SDS011;3155;49.940;8.450;2023-07-29T10:48:56;204.65;;;188.80;;
6243;SDS011;3155;49.940;8.450;2023-07-29T10:51:28;56.85;;;53.15;;
6243;SDS011;3155;49.940;8.450;2023-07-29T10:53:57;2.22;;;2.03;;
6243;SDS011;3155;49.940;8.450;2023-07-29T10:56:26;3.33;;;3.22;;
6243;SDS011;3155;49.940;8.450;2023-07-29T10:58:56;1.17;;;1.00;;
6243;SDS011;3155;49.940;8.450;2023-07-29T11:01:30;1.10;;;1.10;;
6243;SDS011;3155;49.940;8.450;2023-07-29T11:04:01;1.08;;;1.00;;
6243;SDS011;3155;49.940;8.450;2023-07-29T11:06:28;241.90;;;222.05;;
6243;SDS011;3155;49.940;8.450;2023-07-29T11:08:56;181.75;;;166.32;;
6243;SDS011;3155;49.940;8.450;2023-07-29T11:11:23;44.60;;;40.33;;
6243;SDS011;3155;49.940;8.450;2023-07-29T11:13:50;2.00;;;1.90;;
6243;SDS011;3155;49.940;8.450;2023-07-29T11:16:17;53.40;;;48.00;;
6243;SDS011;3155;49.940;8.450;2023-07-29T11:18:46;437.80;;;393.73;;
6243;SDS011;3155;49.940;8.450;2023-07-29T11:21:14;658.30;;;599.17;;
6243;SDS011;3155;49.940;8.450;2023-07-29T11:23:42;673.38;;;612.35;;
6243;SDS011;3155;49.940;8.450;2023-07-29T11:26:09;236.25;;;216.80;;
6243;SDS011;3155;49.940;8.450;2023-07-29T11:28:39;96.88;;;88.90;;
6243;SDS011;3155;49.940;8.450;2023-07-29T11:31:07;1.48;;;1.38;;
6243;SDS011;3155;49.940;8.450;2023-07-29T11:33:34;286.88;;;261.77;;
6243;SDS011;3155;49.940;8.450;2023-07-29T11:36:01;296.17;;;271.05;;
6243;SDS011;3155;49.940;8.450;2023-07-29T11:38:29;98.10;;;91.03;;
6243;SDS011;3155;49.940;8.450;2023-07-29T11:41:03;25.42;;;23.95;;
6243;SDS011;3155;49.940;8.450;2023-07-29T11:43:36;77.60;;;71.40;;
6243;SDS011;3155;49.940;8.450;2023-07-29T11:46:03;43.55;;;40.17;;
6243;SDS011;3155;49.940;8.450;2023-07-29T11:48:31;1036.43;;;932.95;;
6243;SDS011;3155;49.940;8.450;2023-07-29T11:50:58;1083.50;;;977.45;;
6243;SDS011;3155;49.940;8.450;2023-07-29T11:53:28;1000.20;;;903.92;;
6243;SDS011;3155;49.940;8.450;2023-07-29T11:55:59;4.22;;;2.78;;
6243;SDS011;3155;49.940;8.450;2023-07-29T11:58:26;2.80;;;1.40;;
6243;SDS011;3155;49.940;8.450;2023-07-29T12:00:53;2.00;;;1.10;;
6243;SDS011;3155;49.940;8.450;2023-07-29T12:03:21;1.27;;;1.10;;
6243;SDS011;3155;49.940;8.450;2023-07-29T12:05:48;1.20;;;1.10;;
6243;SDS011;3155;49.940;8.450;2023-07-29T12:08:16;1.08;;;1.08;;
6243;SDS011;3155;49.940;8.450;2023-07-29T12:10:43;2.20;;;1.10;;
6243;SDS011;3155;49.940;8.450;2023-07-29T12:13:10;0.90;;;0.90;;
6243;SDS011;3155;49.940;8.450;2023-07-29T12:15:38;0.90;;;0.90;;
6243;SDS011;3155;49.940;8.450;2023-07-29T12:18:06;1.10;;;1.10;;
6243;SDS011;3155;49.940;8.450;2023-07-29T12:20:34;1.10;;;1.10;;
6243;SDS011;3155;49.940;8.450;2023-07-29T12:23:08;1.58;;;1.08;;
6243;SDS011;3155;49.940;8.450;2023-07-29T12:25:35;1.00;;;1.00;;
6243;SDS011;3155;49.940;8.450;2023-07-29T12:28:06;1.00;;;0.90;;
6243;SDS011;3155;49.940;8.450;2023-07-29T12:30:34;1.10;;;1.10;;
6243;SDS011;3155;49.940;8.450;2023-07-29T12:33:01;1.50;;;1.20;;
6243;SDS011;3155;49.940;8.450;2023-07-29T12:35:35;1.02;;;0.80;;
6243;SDS011;3155;49.940;8.450;2023-07-29T12:38:02;2.30;;;1.00;;
6243;SDS011;3155;49.940;8.450;2023-07-29T12:40:30;1.70;;;1.00;;
6243;SDS011;3155;49.940;8.450;2023-07-29T12:43:00;1.20;;;1.10;;
6243;SDS011;3155;49.940;8.450;2023-07-29T12:45:27;1.00;;;1.00;;
6243;SDS011;3155;49.940;8.450;2023-07-29T12:47:55;1.27;;;0.90;;
6243;SDS011;3155;49.940;8.450;2023-07-29T12:50:23;1.00;;;1.00;;
6243;SDS011;3155;49.940;8.450;2023-07-29T12:52:50;1.10;;;1.10;;
6243;SDS011;3155;49.940;8.450;2023-07-29T12:55:17;1.20;;;1.10;;
6243;SDS011;3155;49.940;8.450;2023-07-29T12:57:49;0.93;;;0.93;;
6243;SDS011;3155;49.940;8.450;2023-07-29T13:00:16;1.00;;;1.00;;
6243;SDS011;3155;49.940;8.450;2023-07-29T13:02:43;0.80;;;0.80;;
6243;SDS011;3155;49.940;8.450;2023-07-29T13:05:11;2.75;;;1.02;;
6243;SDS011;3155;49.940;8.450;2023-07-29T13:07:39;1.50;;;1.00;;
6243;SDS011;3155;49.940;8.450;2023-07-29T13:10:06;1.20;;;1.10;;
6243;SDS011;3155;49.940;8.450;2023-07-29T13:12:33;2.40;;;1.20;;
6243;SDS011;3155;49.940;8.450;2023-07-29T13:15:04;1.90;;;1.00;;
6243;SDS011;3155;49.940;8.450;2023-07-29T13:17:32;6.13;;;5.77;;
6243;SDS011;3155;49.940;8.450;2023-07-29T13:19:59;1.10;;;1.10;;
6243;SDS011;3155;49.940;8.450;2023-07-29T13:22:26;1.10;;;1.10;;
6243;SDS011;3155;49.940;8.450;2023-07-29T13:24:54;208.65;;;192.38;;
6243;SDS011;3155;49.940;8.450;2023-07-29T13:27:21;11.13;;;7.60;;
6243;SDS011;3155;49.940;8.450;2023-07-29T13:29:49;105.50;;;97.33;;
6243;SDS011;3155;49.940;8.450;2023-07-29T13:32:18;22.80;;;21.38;;
6243;SDS011;3155;49.940;8.450;2023-07-29T13:34:45;102.15;;;94.35;;
6243;SDS011;3155;49.940;8.450;2023-07-29T13:37:12;192.45;;;176.65;;
6243;SDS011;3155;49.940;8.450;2023-07-29T13:39:40;17.33;;;16.13;;
6243;SDS011;3155;49.940;8.450;2023-07-29T13:42:07;18.67;;;17.27;;
6243;SDS011;3155;49.940;8.450;2023-07-29T13:44:34;231.95;;;213.23;;
6243;SDS011;3155;49.940;8.450;2023-07-29T13:47:01;10.90;;;10.18;;
6243;SDS011;3155;49.940;8.450;2023-07-29T13:49:28;229.82;;;211.23;;
6243;SDS011;3155;49.940;8.450;2023-07-29T13:51:56;31.30;;;29.27;;
6243;SDS011;3155;49.940;8.450;2023-07-29T13:54:23;1.40;;;1.40;;
6243;SDS011;3155;49.940;8.450;2023-07-29T13:56:50;1.10;;;1.10;;
6243;SDS011;3155;49.940;8.450;2023-07-29T13:59:17;2.10;;;1.10;;
6243;SDS011;3155;49.940;8.450;2023-07-29T14:01:44;12.95;;;12.00;;
6243;SDS011;3155;49.940;8.450;2023-07-29T14:04:15;4.07;;;3.88;;
6243;SDS011;3155;49.940;8.450;2023-07-29T14:06:42;1.73;;;1.73;;
6243;SDS011;3155;49.940;8.450;2023-07-29T14:09:20;2.88;;;2.67;;
6243;SDS011;3155;49.940;8.450;2023-07-29T14:11:48;204.75;;;187.25;;
6243;SDS011;3155;49.940;8.450;2023-07-29T14:14:17;208.73;;;191.02;;
6243;SDS011;3155;49.940;8.450;2023-07-29T14:16:47;233.55;;;212.10;;
6243;SDS011;3155;49.940;8.450;2023-07-29T14:19:18;164.75;;;151.63;;
6243;SDS011;3155;49.940;8.450;2023-07-29T14:21:50;226.87;;;207.73;;
6243;SDS011;3155;49.940;8.450;2023-07-29T14:24:18;54.55;;;50.72;;
6243;SDS011;3155;49.940;8.450;2023-07-29T14:26:46;175.05;;;160.77;;
6243;SDS011;3155;49.940;8.450;2023-07-29T14:29:14;100.65;;;93.22;;
6243;SDS011;3155;49.940;8.450;2023-07-29T14:31:42;34.78;;;32.63;;
6243;SDS011;3155;49.940;8.450;2023-07-29T14:34:10;1.63;;;1.52;;
6243;SDS011;3155;49.940;8.450;2023-07-29T14:36:40;24.63;;;22.73;;
6243;SDS011;3155;49.940;8.450;2023-07-29T14:39:08;17.08;;;16.00;;
6243;SDS011;3155;49.940;8.450;2023-07-29T14:41:35;39.80;;;36.80;;
6243;SDS011;3155;49.940;8.450;2023-07-29T14:44:02;1.98;;;1.98;;
6243;SDS011;3155;49.940;8.450;2023-07-29T14:46:29;4.67;;;4.57;;
6243;SDS011;3155;49.940;8.450;2023-07-29T14:48:56;2.65;;;2.13;;
6243;SDS011;3155;49.940;8.450;2023-07-29T14:51:23;1.30;;;1.30;;
6243;SDS011;3155;49.940;8.450;2023-07-29T14:53:52;1.40;;;1.40;;